»·PEaware :: N44383 KBFL-KFAT

N44383 :: KBFL-KFAT

FLIGHT INFORMATION

Flight Status: Arrived
Operator: Privately registered:
United States
More flights under this callsign
Pilot: Bill S. (45994)
Aircraft: CIRRUS SR-22 TURBO
(S22T)
More flights by this aircraft type
Origin: KBFL Meadows
United States
Destination: KFAT Fresno Yosemite Intl
United States
More flights between these airports :: More routes between these airports
Route: TTE ALTTA9
File this flight plan on PilotEdge
Remarks:
Altitude:
(Current/Filed)
6,000ft
Speed:
(Current/Filed)
177kts
Departed: 12-Feb-24 08:26 PM
Arrived: 12-Feb-24 09:02 PM
Distance/Time
Traveled:
87nm/0:35
Distance/Time
To Go:
Arrived

Flight Plot

Page will automatically refresh every two minutes.

Flight plan parsing failed; only flown route is shown


Map Options




Map Legend


Flown Route
Filed Route
Departure Airport
Arrival Airport
Navaid (VOR, NDB)
Fix

Horizontal Profiles

Position Reports

Time Latitude Longitude Heading Altitude Ground
Speed
12-Feb-24 20:07 35.434836 -119.054178 229 488ft 0kts
12-Feb-24 20:08 35.434836 -119.054178 229 488ft 0kts
12-Feb-24 20:09 35.434836 -119.054178 229 488ft 0kts
12-Feb-24 20:10 35.434836 -119.054178 229 488ft 0kts
12-Feb-24 20:11 35.434836 -119.054178 229 488ft 0kts
12-Feb-24 20:12 35.434836 -119.054178 229 488ft 0kts
12-Feb-24 20:13 35.434836 -119.054178 229 488ft 0kts
12-Feb-24 20:14 35.434836 -119.054178 229 488ft 0kts
12-Feb-24 20:15 35.434836 -119.054178 229 488ft 0kts
12-Feb-24 20:16 35.434836 -119.054178 229 488ft 0kts
12-Feb-24 20:17 35.434836 -119.054178 229 488ft 0kts
12-Feb-24 20:18 35.433222 -119.053178 135 482ft 21kts
12-Feb-24 20:19 35.428862 -119.047823 132 481ft 19kts
12-Feb-24 20:20 35.425810 -119.044674 221 471ft 0kts
12-Feb-24 20:21 35.425810 -119.044674 221 471ft 0kts
12-Feb-24 20:22 35.425810 -119.044674 221 471ft 0kts
12-Feb-24 20:23 35.425810 -119.044674 221 471ft 0kts
12-Feb-24 20:24 35.425535 -119.045099 237 472ft 13kts
12-Feb-24 20:25 35.437995 -119.061728 313 1051ft 105kts
12-Feb-24 20:26 35.457910 -119.087481 313 2787ft 103kts
12-Feb-24 20:27 35.478059 -119.113181 313 4505ft 105kts
12-Feb-24 20:28 35.505848 -119.115971 10 6006ft 130kts
12-Feb-24 20:29 35.550977 -119.105359 10 6010ft 179kts
12-Feb-24 20:30 35.599964 -119.094155 10 6006ft 178kts
12-Feb-24 20:31 35.648749 -119.082773 10 6009ft 178kts
12-Feb-24 20:32 35.697506 -119.071391 10 6012ft 179kts
12-Feb-24 20:33 35.746443 -119.059923 10 6015ft 179kts
12-Feb-24 20:34 35.795391 -119.048466 11 6020ft 179kts
12-Feb-24 20:35 35.844483 -119.036921 10 6023ft 179kts
12-Feb-24 20:36 35.893371 -119.025445 11 6024ft 179kts
12-Feb-24 20:37 35.940830 -119.035341 338 6017ft 179kts
12-Feb-24 20:38 35.987728 -119.056523 339 6022ft 179kts
12-Feb-24 20:39 36.034555 -119.078581 338 6007ft 179kts
12-Feb-24 20:40 36.081126 -119.100716 338 6006ft 180kts
12-Feb-24 20:41 36.127928 -119.123026 338 6003ft 179kts
12-Feb-24 20:42 36.174574 -119.145301 338 6000ft 180kts
12-Feb-24 20:43 36.221382 -119.167660 338 6000ft 180kts
12-Feb-24 20:44 36.263755 -119.203121 321 5629ft 189kts
12-Feb-24 20:45 36.305930 -119.243063 323 5138ft 190kts
12-Feb-24 20:47 36.347550 -119.280684 323 4620ft 182kts
12-Feb-24 20:48 36.387931 -119.317162 323 4096ft 174kts
12-Feb-24 20:49 36.426509 -119.352049 324 3581ft 169kts
12-Feb-24 20:50 36.463327 -119.385401 324 3267ft 162kts
12-Feb-24 20:51 36.499781 -119.418417 324 2997ft 158kts
12-Feb-24 20:52 36.536674 -119.451828 324 2390ft 165kts
12-Feb-24 20:53 36.572921 -119.484872 324 1992ft 153kts
12-Feb-24 20:54 36.606250 -119.515242 324 1983ft 145kts
12-Feb-24 20:55 36.638701 -119.544748 324 1983ft 144kts
12-Feb-24 20:56 36.672071 -119.575096 324 1667ft 152kts
12-Feb-24 20:57 36.704927 -119.605210 324 1481ft 139kts
12-Feb-24 20:58 36.730795 -119.638579 305 1477ft 130kts
12-Feb-24 20:59 36.749026 -119.669453 307 984ft 86kts
12-Feb-24 21:00 36.762471 -119.692445 305 588ft 79kts
12-Feb-24 21:01 36.774745 -119.713900 305 337ft 52kts
12-Feb-24 21:02 36.776505 -119.718767 276 332ft 0kts
12-Feb-24 21:03 36.774235 -119.721210 215 331ft 11kts
12-Feb-24 21:04 36.772526 -119.719739 225 334ft 0kts
12-Feb-24 21:05 36.772526 -119.719739 225 334ft 0kts
12-Feb-24 21:06 36.772526 -119.719739 225 334ft 0kts

Navigation Log

Ident Type
Flight plan parsing failed, navigation log unavailable